Weather

BOSCOMBE DOWN (EGDM)

METAR

EGDM 230250Z AUTO 00000KT 0150 FG SCT001/// OVC080/// 15/15 Q1021

TAF

TAF EGDM 130455Z 1306/1324 17015KT 9999 -RA BKN015 TEMPO 1306/1312 17018G28KT 6000 -RADZ BKN010 PROB30 TEMPO 1306/1315 3000 RADZ BKN006 BECMG 1312/1315 BKN008

BRISTOL AIRPORT (EGGD)

METAR

EGGD 230320Z AUTO VRB01KT 1400 BR NCD 15/15 Q1020

TAF

TAF AMD EGGD 230318Z 2303/2324 12006KT 9999 FEW025 TEMPO 2303/2307 3000 BR BKN003 PROB40 2303/2306 0300 FG BKN001 PROB40 TEMPO 2318/2324 14015G25KT 3000 +SHRAGR TSRA

BRIZE NORTON (EGVN)

METAR

EGVN 230320Z 05001KT 2000 0500E BCFG FEW001 14/14 Q1020 NOSIG RMK RED RED

TAF

TAF EGVN 230147Z 2303/2403 VRB03KT 2000 BR FEW000 PROB40 2303/2307 0300 FG VV/// BECMG 2307/2310 CAVOK PROB30 TEMPO 2318/2324 19015G25KT 6000 TSRA SHGR SCT070CB PROB30 2400/2403 7000 BR

OXFORD (EGTK)

METAR

EGTK 222120Z 25003KT CAVOK 19/16 Q1021

Pressure charts

Click to see pressure charts
(redidrection to MetOffice website)